createdAt,value
2017-08-10T00:01:33.281Z,58.63
2017-08-10T00:04:00.844Z,58.62
2017-08-10T00:06:28.370Z,58.88
2017-08-10T00:08:55.932Z,58.78
2017-08-10T00:11:23.453Z,58.97
2017-08-10T00:13:51.014Z,58.86
2017-08-10T00:16:18.564Z,58.78
2017-08-10T00:18:46.118Z,58.81
2017-08-10T00:21:13.641Z,58.94
2017-08-10T00:23:41.193Z,58.91
2017-08-10T00:26:08.732Z,58.82
2017-08-10T00:28:36.256Z,58.91
2017-08-10T00:31:03.811Z,58.95
2017-08-10T00:33:31.337Z,58.95
2017-08-10T00:35:58.897Z,59.06
2017-08-10T00:38:26.421Z,59.00
2017-08-10T00:40:53.976Z,58.96
2017-08-10T00:43:21.490Z,58.98
2017-08-10T00:45:49.046Z,58.91
2017-08-10T00:48:16.601Z,58.92
2017-08-10T00:50:44.165Z,58.94
2017-08-10T00:53:11.684Z,58.88
2017-08-10T00:55:39.314Z,58.98
2017-08-10T00:58:06.833Z,59.19
2017-08-10T01:00:34.379Z,59.11
2017-08-10T01:03:01.927Z,58.85
2017-08-10T01:05:29.481Z,58.86
2017-08-10T01:07:57.017Z,58.95
2017-08-10T01:10:24.563Z,58.98
2017-08-10T01:12:52.082Z,58.86
2017-08-10T01:15:19.630Z,58.93
2017-08-10T01:17:47.155Z,59.14
2017-08-10T01:20:14.683Z,59.11
2017-08-10T01:22:42.236Z,59.00
2017-08-10T01:25:09.788Z,59.07
2017-08-10T01:27:37.338Z,58.90
2017-08-10T01:30:04.858Z,58.83
2017-08-10T01:32:32.405Z,58.92
2017-08-10T01:34:59.932Z,58.80
2017-08-10T01:37:27.487Z,58.73
2017-08-10T01:39:55.010Z,58.74
2017-08-10T01:42:22.558Z,58.78
2017-08-10T01:44:50.081Z,58.76
2017-08-10T01:47:17.640Z,58.93
2017-08-10T01:49:45.163Z,58.74
2017-08-10T01:52:12.714Z,58.77
2017-08-10T01:54:40.266Z,58.92
2017-08-10T01:57:07.821Z,58.87
2017-08-10T01:59:35.341Z,59.04
2017-08-10T02:02:02.862Z,58.87
2017-08-10T02:04:30.418Z,58.85
2017-08-10T02:06:57.940Z,58.92
2017-08-10T02:09:25.502Z,58.84
2017-08-10T02:11:53.028Z,58.91
2017-08-10T02:14:20.599Z,58.92
2017-08-10T02:16:48.123Z,58.93
2017-08-10T02:19:15.673Z,58.97
2017-08-10T02:21:43.201Z,59.00
2017-08-10T02:24:10.752Z,58.88
2017-08-10T02:26:38.271Z,58.81
2017-08-10T02:29:05.826Z,58.88
2017-08-10T02:31:33.422Z,58.79
2017-08-10T02:34:00.973Z,58.69
2017-08-10T02:36:28.499Z,58.77
2017-08-10T02:38:56.141Z,58.75
2017-08-10T02:41:23.671Z,58.89
2017-08-10T02:43:51.222Z,58.76
2017-08-10T02:46:18.819Z,58.81
2017-08-10T02:48:46.395Z,58.78
2017-08-10T02:51:13.908Z,58.83
2017-08-10T02:53:41.498Z,58.79
2017-08-10T02:56:09.080Z,58.71
2017-08-10T02:58:36.606Z,58.75
2017-08-10T03:01:04.174Z,58.76
2017-08-10T03:03:31.710Z,58.73
2017-08-10T03:05:59.265Z,58.93
2017-08-10T03:08:26.790Z,59.00
2017-08-10T03:10:54.349Z,58.91
2017-08-10T03:13:21.877Z,59.00
2017-08-10T03:15:49.428Z,59.05
2017-08-10T03:18:16.941Z,58.97
2017-08-10T03:20:44.517Z,58.98
2017-08-10T03:23:12.063Z,58.98
2017-08-10T03:25:39.634Z,58.89
2017-08-10T03:28:07.166Z,58.78
2017-08-10T03:30:34.733Z,58.81
2017-08-10T03:33:02.292Z,58.89
2017-08-10T03:35:29.861Z,58.96
2017-08-10T03:37:57.394Z,58.96
2017-08-10T03:40:24.962Z,58.92
2017-08-10T03:42:52.481Z,58.88
2017-08-10T03:45:20.114Z,59.10
2017-08-10T03:47:47.695Z,59.11
2017-08-10T03:50:15.217Z,58.93
2017-08-10T03:52:42.776Z,58.98
2017-08-10T03:55:10.310Z,59.03
2017-08-10T03:57:37.873Z,58.90
2017-08-10T04:00:05.392Z,59.01
2017-08-10T04:02:32.955Z,59.21
2017-08-10T04:05:00.530Z,59.07
2017-08-10T04:07:28.087Z,58.89
2017-08-10T04:09:55.612Z,59.04
2017-08-10T04:12:23.176Z,58.94
2017-08-10T04:14:50.693Z,59.06
2017-08-10T04:17:18.264Z,59.11
2017-08-10T04:19:45.786Z,59.34
2017-08-10T04:22:13.369Z,59.20
2017-08-10T04:24:40.916Z,59.10
2017-08-10T04:27:08.471Z,59.00
2017-08-10T04:29:36.002Z,59.23
2017-08-10T04:32:03.531Z,59.51
2017-08-10T04:34:31.123Z,59.69
2017-08-10T04:36:58.646Z,60.09
2017-08-10T04:39:26.160Z,60.50
2017-08-10T04:41:53.732Z,60.08
2017-08-10T04:44:21.302Z,61.32
2017-08-10T04:46:48.903Z,60.87
2017-08-10T04:49:16.427Z,61.32
2017-08-10T04:51:43.974Z,61.40
2017-08-10T04:54:11.529Z,60.75
2017-08-10T04:56:39.120Z,61.06
2017-08-10T04:59:06.641Z,61.62
2017-08-10T05:01:34.195Z,61.04
2017-08-10T05:04:01.735Z,61.80
2017-08-10T05:06:29.298Z,61.71
2017-08-10T05:08:56.833Z,61.80
2017-08-10T05:11:24.367Z,61.92
2017-08-10T05:13:51.958Z,61.53
2017-08-10T05:16:19.533Z,61.54
2017-08-10T05:18:47.086Z,61.50
2017-08-10T05:21:14.609Z,61.37
2017-08-10T05:23:42.165Z,61.25
2017-08-10T05:26:09.695Z,61.14
2017-08-10T05:28:37.249Z,61.05
2017-08-10T05:31:04.825Z,60.90
2017-08-10T05:33:32.392Z,60.89
2017-08-10T05:35:59.974Z,60.83
2017-08-10T05:38:27.539Z,60.80
2017-08-10T05:40:55.062Z,60.77
2017-08-10T05:43:22.609Z,60.66
2017-08-10T05:45:50.159Z,60.54
2017-08-10T05:48:17.722Z,60.45
2017-08-10T05:50:45.240Z,60.39
2017-08-10T05:53:12.796Z,60.35
2017-08-10T05:55:40.323Z,60.33
2017-08-10T05:58:07.893Z,60.29
2017-08-10T06:00:35.462Z,60.26
2017-08-10T06:03:02.997Z,60.26
2017-08-10T06:05:30.557Z,60.21
2017-08-10T06:07:58.076Z,60.19
2017-08-10T06:10:25.641Z,60.19
2017-08-10T06:12:53.156Z,60.16
2017-08-10T06:15:20.715Z,60.13
2017-08-10T06:17:48.461Z,60.04
2017-08-10T06:20:16.229Z,60.11
2017-08-10T06:22:44.622Z,60.03
2017-08-10T06:25:13.282Z,59.91
2017-08-10T06:27:41.476Z,59.94
2017-08-10T06:30:10.146Z,59.92
2017-08-10T06:32:39.092Z,59.92
2017-08-10T06:35:06.729Z,59.88
2017-08-10T06:37:34.947Z,59.90
2017-08-10T06:40:03.827Z,59.82
2017-08-10T06:42:31.595Z,59.81
2017-08-10T06:44:59.638Z,59.80
2017-08-10T06:47:27.602Z,59.86
2017-08-10T06:49:55.222Z,59.89
2017-08-10T06:52:22.761Z,59.77
2017-08-10T06:54:50.285Z,59.70
2017-08-10T06:57:17.867Z,59.62
2017-08-10T06:59:45.384Z,59.58
2017-08-10T07:02:12.929Z,59.55
2017-08-10T07:04:40.492Z,59.48
2017-08-10T07:07:08.035Z,59.51
2017-08-10T07:09:35.549Z,59.32
2017-08-10T07:12:03.106Z,59.20
2017-08-10T07:14:30.625Z,59.19
2017-08-10T07:16:58.182Z,59.02
2017-08-10T07:19:25.768Z,59.02
2017-08-10T07:21:53.317Z,58.96
2017-08-10T07:24:20.829Z,58.89
2017-08-10T07:26:48.380Z,58.84
2017-08-10T07:29:15.952Z,58.82
2017-08-10T07:31:43.470Z,58.70
2017-08-10T07:34:11.020Z,58.70
2017-08-10T07:36:38.563Z,58.61
2017-08-10T07:39:06.125Z,58.55
2017-08-10T07:41:33.640Z,58.55
2017-08-10T07:44:01.223Z,58.53
2017-08-10T07:46:28.745Z,58.52
2017-08-10T07:48:56.296Z,58.45
2017-08-10T07:51:23.821Z,58.42
2017-08-10T07:53:51.371Z,58.37
2017-08-10T07:56:18.895Z,58.34
2017-08-10T07:58:46.450Z,58.29
2017-08-10T08:01:13.967Z,58.37
2017-08-10T08:03:41.521Z,58.39
2017-08-10T08:06:09.041Z,58.37
2017-08-10T08:08:36.595Z,58.39
2017-08-10T08:11:04.104Z,58.42
2017-08-10T08:13:31.662Z,58.38
2017-08-10T08:15:59.188Z,58.36
2017-08-10T08:18:26.733Z,58.37
2017-08-10T08:20:54.366Z,58.40
2017-08-10T08:23:21.885Z,58.41
2017-08-10T08:25:49.430Z,58.31
2017-08-10T08:28:16.954Z,58.22
2017-08-10T08:30:44.525Z,58.19
2017-08-10T08:33:12.041Z,58.13
2017-08-10T08:35:39.594Z,58.01
2017-08-10T08:38:07.129Z,57.96
2017-08-10T08:40:34.693Z,57.93
2017-08-10T08:43:02.216Z,57.84
2017-08-10T08:45:29.782Z,57.75
2017-08-10T08:47:57.622Z,57.75
2017-08-10T08:50:25.289Z,57.75
2017-08-10T08:52:53.039Z,57.71
2017-08-10T08:55:21.357Z,57.72
2017-08-10T08:57:49.094Z,57.73
2017-08-10T09:00:16.875Z,57.64
2017-08-10T09:02:44.725Z,57.65
2017-08-10T09:05:13.104Z,57.68
2017-08-10T09:07:41.130Z,57.63
2017-08-10T09:10:08.663Z,57.62
2017-08-10T09:12:36.213Z,57.68
2017-08-10T09:15:03.742Z,57.71
2017-08-10T09:17:31.315Z,57.84
2017-08-10T09:19:58.830Z,57.94
2017-08-10T09:22:26.386Z,57.97
2017-08-10T09:24:53.915Z,58.06
2017-08-10T09:27:21.552Z,58.00
2017-08-10T09:29:49.068Z,58.05
2017-08-10T09:32:16.626Z,58.02
2017-08-10T09:34:44.173Z,58.05
2017-08-10T09:37:11.716Z,58.02
2017-08-10T09:39:39.234Z,58.10
2017-08-10T09:42:06.756Z,58.11
2017-08-10T09:44:34.313Z,58.05
2017-08-10T09:47:01.839Z,57.95
2017-08-10T09:49:29.395Z,57.90
2017-08-10T09:51:56.944Z,57.83
2017-08-10T09:54:24.498Z,57.73
2017-08-10T09:56:52.013Z,57.64
2017-08-10T09:59:19.638Z,57.52
2017-08-10T10:01:47.169Z,57.38
2017-08-10T10:04:14.722Z,57.41
2017-08-10T10:06:42.240Z,57.49
2017-08-10T10:09:09.784Z,57.35
2017-08-10T10:11:37.298Z,57.24
2017-08-10T10:14:04.879Z,57.18
2017-08-10T10:16:32.540Z,57.21
2017-08-10T10:19:00.110Z,57.27
2017-08-10T10:21:27.634Z,57.30
2017-08-10T10:23:55.184Z,57.40
2017-08-10T10:26:22.743Z,57.41
2017-08-10T10:28:50.264Z,57.46
2017-08-10T10:31:17.820Z,57.41
2017-08-10T10:33:45.333Z,57.46
2017-08-10T10:36:12.914Z,57.53
2017-08-10T10:38:40.430Z,57.61
2017-08-10T10:41:07.991Z,57.69
2017-08-10T10:43:35.513Z,57.78
2017-08-10T10:46:03.061Z,57.65
2017-08-10T10:48:30.574Z,57.69
2017-08-10T10:50:58.126Z,57.54
2017-08-10T10:53:25.693Z,57.53
2017-08-10T10:55:53.261Z,57.59
2017-08-10T10:58:20.776Z,57.66
2017-08-10T11:00:48.340Z,57.67
2017-08-10T11:03:15.866Z,57.55
2017-08-10T11:05:43.456Z,57.55
2017-08-10T11:08:10.977Z,57.54
2017-08-10T11:10:38.507Z,57.50
2017-08-10T11:13:06.054Z,57.61
2017-08-10T11:15:33.581Z,57.63
2017-08-10T11:18:01.129Z,57.62
2017-08-10T11:20:28.640Z,57.60
2017-08-10T11:22:56.189Z,57.51
2017-08-10T11:25:23.719Z,57.52
2017-08-10T11:27:51.278Z,57.48
2017-08-10T11:30:18.831Z,57.46
2017-08-10T11:32:46.381Z,57.54
2017-08-10T11:35:13.909Z,57.58
2017-08-10T11:37:41.463Z,57.60
2017-08-10T11:40:08.980Z,57.71
2017-08-10T11:42:36.524Z,57.77
2017-08-10T11:45:04.142Z,57.76
2017-08-10T11:47:31.707Z,57.74
2017-08-10T11:49:59.240Z,57.85
2017-08-10T11:52:26.828Z,57.87
2017-08-10T11:54:54.345Z,57.94
2017-08-10T11:57:21.870Z,58.03
2017-08-10T11:59:49.426Z,58.10
2017-08-10T12:02:16.944Z,58.08
2017-08-10T12:04:44.486Z,58.12
2017-08-10T12:07:12.009Z,58.17
2017-08-10T12:09:39.561Z,58.08
2017-08-10T12:12:07.078Z,58.03
2017-08-10T12:14:34.627Z,57.94
2017-08-10T12:17:02.158Z,58.02
2017-08-10T12:19:29.713Z,57.56
2017-08-10T12:21:57.238Z,56.94
2017-08-10T12:24:24.798Z,56.94
2017-08-10T12:26:52.324Z,56.64
2017-08-10T12:29:19.877Z,56.53
2017-08-10T12:31:47.402Z,56.56
2017-08-10T12:34:14.928Z,56.61
2017-08-10T12:36:42.477Z,56.63
2017-08-10T12:39:10.012Z,56.69
2017-08-10T12:41:37.581Z,56.63
2017-08-10T12:44:05.097Z,56.66
2017-08-10T12:46:32.649Z,56.54
2017-08-10T12:49:00.165Z,56.84
2017-08-10T12:51:27.715Z,57.06
2017-08-10T12:53:55.282Z,57.03
2017-08-10T12:56:22.864Z,57.20
2017-08-10T12:58:50.420Z,57.01
2017-08-10T13:01:17.969Z,56.94
2017-08-10T13:03:45.527Z,56.91
2017-08-10T13:06:13.076Z,56.85
2017-08-10T13:08:40.599Z,56.88
2017-08-10T13:11:08.155Z,56.97
2017-08-10T13:13:35.674Z,56.87
2017-08-10T13:16:03.226Z,56.91
2017-08-10T13:18:30.851Z,56.86
2017-08-10T13:20:58.406Z,56.89
2017-08-10T13:23:25.937Z,57.01
2017-08-10T13:25:53.488Z,57.08
2017-08-10T13:28:21.033Z,57.12
2017-08-10T13:30:48.550Z,56.97
2017-08-10T13:33:16.106Z,57.00
2017-08-10T13:35:43.620Z,57.06
2017-08-10T13:38:11.173Z,57.12
2017-08-10T13:40:38.701Z,57.12
2017-08-10T13:43:06.344Z,57.12
2017-08-10T13:45:33.856Z,56.94
2017-08-10T13:48:01.415Z,56.83
2017-08-10T13:50:28.953Z,56.89
2017-08-10T13:52:56.503Z,56.92
2017-08-10T13:55:24.037Z,56.83
2017-08-10T13:57:51.585Z,56.75
2017-08-10T14:00:19.097Z,56.65
2017-08-10T14:02:46.651Z,56.70
2017-08-10T14:05:14.172Z,56.83
2017-08-10T14:07:41.721Z,56.67
2017-08-10T14:10:09.243Z,56.54
2017-08-10T14:12:36.811Z,56.48
2017-08-10T14:15:04.330Z,56.51
2017-08-10T14:17:31.848Z,56.53
2017-08-10T14:19:59.409Z,56.57
2017-08-10T14:22:26.929Z,56.70
2017-08-10T14:24:54.477Z,56.80
2017-08-10T14:27:22.316Z,56.78
2017-08-10T14:29:49.866Z,56.73
2017-08-10T14:32:17.408Z,56.81
2017-08-10T14:34:44.959Z,56.73
2017-08-10T14:37:12.498Z,56.90
2017-08-10T14:39:40.065Z,57.12
2017-08-10T14:42:07.585Z,56.95
2017-08-10T14:44:35.142Z,56.98
2017-08-10T14:47:02.665Z,57.04
2017-08-10T14:49:30.216Z,56.94
2017-08-10T14:51:57.739Z,57.15
2017-08-10T14:54:25.286Z,57.01
2017-08-10T14:56:52.801Z,57.03
2017-08-10T14:59:20.350Z,57.01
2017-08-10T15:01:47.864Z,57.23
2017-08-10T15:04:15.435Z,57.19
2017-08-10T15:06:42.950Z,57.18
2017-08-10T15:09:10.460Z,57.30
2017-08-10T15:11:38.007Z,57.24
2017-08-10T15:14:05.532Z,57.59
2017-08-10T15:16:33.088Z,57.62
2017-08-10T15:19:00.620Z,57.71
2017-08-10T15:21:28.166Z,57.59
2017-08-10T15:23:56.315Z,57.60
2017-08-10T15:26:23.861Z,57.60
2017-08-10T15:28:51.381Z,57.63
2017-08-10T15:31:18.926Z,57.58
2017-08-10T15:33:46.701Z,57.55
2017-08-10T15:36:14.256Z,57.53
2017-08-10T15:38:41.776Z,57.46
2017-08-10T15:41:09.320Z,57.46
2017-08-10T15:43:36.841Z,57.37
2017-08-10T15:46:04.358Z,57.37
2017-08-10T15:48:31.909Z,57.35
2017-08-10T15:50:59.429Z,57.36
2017-08-10T15:53:26.988Z,57.37
2017-08-10T15:55:54.557Z,57.38
2017-08-10T15:58:22.114Z,57.36
2017-08-10T16:00:49.624Z,57.56
2017-08-10T16:03:17.728Z,57.71
2017-08-10T16:05:46.034Z,57.05
2017-08-10T16:08:14.719Z,57.03
2017-08-10T16:10:43.305Z,56.99
2017-08-10T16:13:11.456Z,56.88
2017-08-10T16:15:39.153Z,56.90
2017-08-10T16:18:06.713Z,56.86
2017-08-10T16:20:34.237Z,56.97
2017-08-10T16:23:01.804Z,56.79
2017-08-10T16:25:29.335Z,56.73
2017-08-10T16:27:56.885Z,56.81
2017-08-10T16:30:24.396Z,56.83
2017-08-10T16:32:51.915Z,56.90
2017-08-10T16:35:19.466Z,56.87
2017-08-10T16:37:46.989Z,56.93
2017-08-10T16:40:14.547Z,56.95
2017-08-10T16:42:42.066Z,56.92
2017-08-10T16:45:09.624Z,56.86
2017-08-10T16:47:37.140Z,55.65
2017-08-10T16:50:04.694Z,56.26
2017-08-10T16:52:32.215Z,56.17
2017-08-10T16:54:59.764Z,56.51
2017-08-10T16:57:27.288Z,56.57
2017-08-10T16:59:54.838Z,56.27
2017-08-10T17:02:22.582Z,56.23
2017-08-10T17:04:50.257Z,56.15
2017-08-10T17:07:18.043Z,56.22
2017-08-10T17:09:45.628Z,55.65
2017-08-10T17:12:13.355Z,55.33
2017-08-10T17:14:41.690Z,55.36
2017-08-10T17:17:09.426Z,55.48
2017-08-10T17:19:37.674Z,55.49
2017-08-10T17:22:05.793Z,55.38
2017-08-10T17:24:33.606Z,55.54
2017-08-10T17:27:01.832Z,55.60
2017-08-10T17:29:30.239Z,55.32
2017-08-10T17:31:58.206Z,55.28
2017-08-10T17:34:26.073Z,55.42
2017-08-10T17:36:54.080Z,55.58
2017-08-10T17:39:21.955Z,55.66
2017-08-10T17:41:49.646Z,55.49
2017-08-10T17:44:17.167Z,55.57
2017-08-10T17:46:44.717Z,55.64
2017-08-10T17:49:12.245Z,55.56
2017-08-10T17:51:39.796Z,55.72
2017-08-10T17:54:07.318Z,55.75
2017-08-10T17:56:34.864Z,55.73
2017-08-10T17:59:02.388Z,55.73
2017-08-10T18:01:29.957Z,55.77
2017-08-10T18:03:57.489Z,55.88
2017-08-10T18:06:25.180Z,55.88
2017-08-10T18:08:52.874Z,55.78
2017-08-10T18:11:20.571Z,55.72
2017-08-10T18:13:49.209Z,55.76
2017-08-10T18:16:16.796Z,55.58
2017-08-10T18:18:44.347Z,55.59
2017-08-10T18:21:11.869Z,55.73
2017-08-10T18:23:39.418Z,55.84
2017-08-10T18:26:06.949Z,55.89
2017-08-10T18:28:34.509Z,55.99
2017-08-10T18:31:02.038Z,56.12
2017-08-10T18:33:29.603Z,56.10
2017-08-10T18:35:57.121Z,56.06
2017-08-10T18:38:24.677Z,56.17
2017-08-10T18:40:52.203Z,56.19
2017-08-10T18:43:19.748Z,56.29
2017-08-10T18:45:47.271Z,56.34
2017-08-10T18:48:14.822Z,56.51
2017-08-10T18:50:42.343Z,56.44
2017-08-10T18:53:09.901Z,56.50
2017-08-10T18:55:37.417Z,56.61
2017-08-10T18:58:04.966Z,56.65
2017-08-10T19:00:32.512Z,56.78
2017-08-10T19:03:00.037Z,56.67
2017-08-10T19:05:27.587Z,56.81
2017-08-10T19:07:55.105Z,56.82
2017-08-10T19:10:22.653Z,56.77
2017-08-10T19:12:50.183Z,56.83
2017-08-10T19:15:17.720Z,56.88
2017-08-10T19:17:45.379Z,57.06
2017-08-10T19:20:13.246Z,56.83
2017-08-10T19:22:40.927Z,56.95
2017-08-10T19:25:08.476Z,56.94
2017-08-10T19:27:36.027Z,56.94
2017-08-10T19:30:03.586Z,56.98
2017-08-10T19:32:31.104Z,56.90
2017-08-10T19:34:58.673Z,56.92
2017-08-10T19:37:26.189Z,56.99
2017-08-10T19:39:53.702Z,56.89
2017-08-10T19:42:21.256Z,56.94
2017-08-10T19:44:48.767Z,56.97
2017-08-10T19:47:16.318Z,56.95
2017-08-10T19:49:43.837Z,57.06
2017-08-10T19:52:11.398Z,56.99
2017-08-10T19:54:38.918Z,57.00
2017-08-10T19:57:06.477Z,56.83
2017-08-10T19:59:34.158Z,56.90
2017-08-10T20:02:01.713Z,56.92
2017-08-10T20:04:29.234Z,56.88
2017-08-10T20:06:56.751Z,56.93
2017-08-10T20:09:24.298Z,56.89
2017-08-10T20:11:51.858Z,56.84
2017-08-10T20:14:19.416Z,56.78
2017-08-10T20:16:46.940Z,56.72
2017-08-10T20:19:14.497Z,56.78
2017-08-10T20:21:42.010Z,56.71
2017-08-10T20:24:09.558Z,56.70
2017-08-10T20:26:37.074Z,56.81
2017-08-10T20:29:04.644Z,56.75
2017-08-10T20:31:32.159Z,56.78
2017-08-10T20:33:59.685Z,56.79
2017-08-10T20:36:27.253Z,56.78
2017-08-10T20:38:54.773Z,56.78
2017-08-10T20:41:22.333Z,56.80
2017-08-10T20:43:49.858Z,56.76
2017-08-10T20:46:17.433Z,56.75
2017-08-10T20:48:44.962Z,56.70
2017-08-10T20:51:12.519Z,56.64
2017-08-10T20:53:40.068Z,56.64
2017-08-10T20:56:07.597Z,56.62
2017-08-10T20:58:35.152Z,56.62
2017-08-10T21:01:02.674Z,56.60
2017-08-10T21:03:30.226Z,56.59
2017-08-10T21:05:57.757Z,56.71
2017-08-10T21:10:10.143Z,55.77
2017-08-10T21:12:37.691Z,56.59
2017-08-10T21:15:05.209Z,56.89
2017-08-10T21:17:32.754Z,57.04
2017-08-10T21:20:00.275Z,57.20
2017-08-10T21:22:27.829Z,57.38
2017-08-10T21:24:55.346Z,57.22
2017-08-10T21:27:22.863Z,57.25
2017-08-10T21:29:50.400Z,57.35
2017-08-10T21:32:17.917Z,57.35
2017-08-10T21:34:45.488Z,57.27
2017-08-10T21:37:13.038Z,57.38
2017-08-10T21:39:40.610Z,57.24
2017-08-10T21:42:08.126Z,57.24
2017-08-10T21:44:37.821Z,57.25
2017-08-10T21:47:05.343Z,57.38
2017-08-10T21:49:33.076Z,57.29
2017-08-10T21:52:00.601Z,57.29
2017-08-10T21:54:28.153Z,57.25
2017-08-10T21:56:55.670Z,57.32
2017-08-10T21:59:23.220Z,57.31
2017-08-10T22:01:50.745Z,57.26
2017-08-10T22:04:18.332Z,57.31
2017-08-10T22:06:45.879Z,57.24
2017-08-10T22:09:13.441Z,57.18
2017-08-10T22:11:40.965Z,57.06
2017-08-10T22:14:08.502Z,56.97
2017-08-10T22:16:36.092Z,57.02
2017-08-10T22:19:03.616Z,56.97
2017-08-10T22:21:31.174Z,56.99
2017-08-10T22:23:58.726Z,56.99
2017-08-10T22:26:26.283Z,56.97
2017-08-10T22:28:53.802Z,56.85
2017-08-10T22:31:21.353Z,56.80
2017-08-10T22:33:48.883Z,56.80
2017-08-10T22:36:16.485Z,56.88
2017-08-10T22:38:43.998Z,56.80
2017-08-10T22:41:11.976Z,56.75
2017-08-10T22:43:39.522Z,56.75
2017-08-10T22:46:07.137Z,56.68
2017-08-10T22:48:34.661Z,56.65
2017-08-10T22:51:02.182Z,56.70
2017-08-10T22:53:29.734Z,56.63
2017-08-10T22:55:57.249Z,56.74
2017-08-10T22:58:24.802Z,56.65
2017-08-10T23:00:52.321Z,56.61
2017-08-10T23:03:19.873Z,56.54
2017-08-10T23:05:48.315Z,56.50
2017-08-10T23:08:15.867Z,56.57
2017-08-10T23:10:43.383Z,56.59
2017-08-10T23:13:10.934Z,56.50
2017-08-10T23:15:38.473Z,56.69
2017-08-10T23:18:06.031Z,56.65
2017-08-10T23:20:33.546Z,56.58
2017-08-10T23:23:01.098Z,56.65
2017-08-10T23:25:28.661Z,56.57
2017-08-10T23:27:56.214Z,56.56
2017-08-10T23:30:23.745Z,56.52
2017-08-10T23:32:51.321Z,56.61
2017-08-10T23:35:18.839Z,56.65
2017-08-10T23:37:46.362Z,56.58
2017-08-10T23:40:13.966Z,56.61
2017-08-10T23:42:41.482Z,56.65
2017-08-10T23:45:09.040Z,56.62
2017-08-10T23:47:36.606Z,56.55
2017-08-10T23:50:04.165Z,56.62
2017-08-10T23:52:31.687Z,56.60
2017-08-10T23:54:59.262Z,56.50
2017-08-10T23:57:26.787Z,56.49
2017-08-10T23:59:54.343Z,56.47
